Terminal Aerodrome Forecast
Issued by NWS

Current Version | Previous Version | Graphics & Text | Print | Product List | Glossary On
Versions: 1 2 3 4 5 6 7 8 9 10 11 12 13 14
160
FTUS41 KPBZ 191732
TAFHLG
TAF
KHLG 191732Z 1918/2018 23006G11KT P6SM BKN045
     FM192100 25009G16KT P6SM VCSH BKN050
     FM200100 23007KT P6SM SCT060
     FM201100 22008KT P6SM SCT035
     FM201400 25010G16KT P6SM BKN045=

USA.gov is the U.S. government's official web portal to all federal, state and local government web resources and services.